Lake City, California
Current Conditions -  °F | °C
As of 9:55 PM on Monday 26 Jan 2015 (Local Time) from KAAT Reporting Station
Clear Clear  
Wind Chill: 34°   Ceiling: Unl
Heat Index: 34°   Visibility: 8mi
Dew Point: 29°   Wind: 3mph
Humidity: 82%   Direction: 280°W
Pressure: 30.05"   Gusts: NA
Location:  41.64°N, 120.22°W
Report Text: KAAT 270555Z AUTO 28003KT 8SM CLR 01/M02 A3005 RMK AO2 SLP176 T00111017 10194 20011 51006
Loading
Personal Weather Stations






























Interactive Weather Map New forecast layout! Learn more

10-Day Weather Forecast

Advertisements
Track Severe Weather on mobile